createdAt,value
2023-03-12T00:00:11.013Z,2.05
2023-03-12T00:01:11.026Z,2.06
2023-03-12T00:02:11.054Z,2.06
2023-03-12T00:03:10.978Z,2.03
2023-03-12T00:04:10.992Z,2.06
2023-03-12T00:05:10.955Z,2.06
2023-03-12T00:06:11.302Z,2.05
2023-03-12T00:07:10.928Z,2.03
2023-03-12T00:08:10.947Z,2.05
2023-03-12T00:09:10.916Z,2.07
2023-03-12T00:10:10.905Z,2.09
2023-03-12T00:11:10.908Z,2.07
2023-03-12T00:12:10.908Z,2.09
2023-03-12T00:13:10.882Z,2.07
2023-03-12T00:14:10.879Z,2.06
2023-03-12T00:15:10.890Z,2.05
2023-03-12T00:16:10.909Z,2.05
2023-03-12T00:17:10.840Z,2.06
2023-03-12T00:18:10.835Z,2.05
2023-03-12T00:19:10.837Z,2.05
2023-03-12T00:20:10.823Z,2.05
2023-03-12T00:21:10.815Z,2.02
2023-03-12T00:22:10.807Z,1.99
2023-03-12T00:23:10.776Z,1.99
2023-03-12T00:24:10.790Z,2.00
2023-03-12T00:25:10.766Z,2.00
2023-03-12T00:26:10.782Z,1.99
2023-03-12T00:27:10.742Z,1.99
2023-03-12T00:28:10.777Z,1.99
2023-03-12T00:29:10.770Z,2.00
2023-03-12T00:30:10.706Z,2.02
2023-03-12T00:31:10.781Z,2.03
2023-03-12T00:32:10.692Z,2.03
2023-03-12T00:33:10.700Z,2.02
2023-03-12T00:34:10.697Z,1.99
2023-03-12T00:35:10.654Z,2.00
2023-03-12T00:36:10.672Z,1.99
2023-03-12T00:37:10.662Z,2.02
2023-03-12T00:38:10.654Z,2.06
2023-03-12T00:39:10.680Z,2.05
2023-03-12T00:40:10.638Z,2.05
2023-03-12T00:41:10.636Z,2.03
2023-03-12T00:42:10.614Z,2.05
2023-03-12T00:43:10.600Z,2.03
2023-03-12T00:44:10.571Z,2.00
2023-03-12T00:45:10.569Z,1.98
2023-03-12T00:46:10.643Z,1.99
2023-03-12T00:47:10.596Z,2.00
2023-03-12T00:48:10.536Z,1.99
2023-03-12T00:49:10.531Z,1.95
2023-03-12T00:50:10.532Z,1.98
2023-03-12T00:51:10.492Z,2.00
2023-03-12T00:52:10.496Z,2.02
2023-03-12T00:53:10.487Z,1.99
2023-03-12T00:54:10.457Z,1.99
2023-03-12T00:55:10.476Z,2.00
2023-03-12T00:56:10.446Z,2.00
2023-03-12T00:57:10.447Z,2.00
2023-03-12T00:58:10.437Z,2.00
2023-03-12T00:59:10.411Z,1.99
2023-03-12T01:00:10.633Z,2.02
2023-03-12T01:01:10.500Z,2.02
2023-03-12T01:02:10.390Z,2.05
2023-03-12T01:03:10.373Z,2.03
2023-03-12T01:04:10.452Z,2.06
2023-03-12T01:05:10.350Z,2.07
2023-03-12T01:06:10.351Z,2.09
2023-03-12T01:07:10.352Z,2.10
2023-03-12T01:08:10.327Z,2.10
2023-03-12T01:09:10.356Z,2.10
2023-03-12T01:10:10.300Z,2.12
2023-03-12T01:11:10.294Z,2.09
2023-03-12T01:12:10.296Z,2.14
2023-03-12T01:13:10.347Z,2.16
2023-03-12T01:14:10.304Z,2.14
2023-03-12T01:15:10.284Z,2.18
2023-03-12T01:16:10.352Z,2.17
2023-03-12T01:17:10.224Z,2.18
2023-03-12T01:18:10.250Z,2.20
2023-03-12T01:19:10.271Z,2.21
2023-03-12T01:20:10.274Z,2.20
2023-03-12T01:21:10.205Z,2.23
2023-03-12T01:22:10.199Z,2.21
2023-03-12T01:23:10.204Z,2.20
2023-03-12T01:24:10.204Z,2.21
2023-03-12T01:25:10.172Z,2.21
2023-03-12T01:26:10.152Z,2.21
2023-03-12T01:27:10.145Z,2.20
2023-03-12T01:28:10.143Z,2.20
2023-03-12T01:29:10.123Z,2.21
2023-03-12T01:30:10.160Z,2.21
2023-03-12T01:31:10.160Z,2.21
2023-03-12T01:32:10.122Z,2.23
2023-03-12T01:33:11.827Z,2.23
2023-03-12T01:34:10.088Z,2.21
2023-03-12T01:35:10.163Z,2.24
2023-03-12T01:36:10.072Z,2.25
2023-03-12T01:37:10.070Z,2.25
2023-03-12T01:38:10.026Z,2.28
2023-03-12T01:39:10.037Z,2.25
2023-03-12T01:40:10.030Z,2.27
2023-03-12T01:41:10.004Z,2.27
2023-03-12T01:42:09.990Z,2.27
2023-03-12T01:43:09.984Z,2.25
2023-03-12T01:44:10.034Z,2.24
2023-03-12T01:45:10.004Z,2.25
2023-03-12T01:54:02.997Z,2.31
